Time;durP1;ratioP1;P1;durP2;ratioP2;P2;SDS_P1;SDS_P2;PMS_P1;PMS_P2;Temp;Humidity;BMP_temperature;BMP_pressure;BME280_temperature;BME280_humidity;BME280_pressure;Samples;Min_cycle;Max_cycle;Signal;HPM_P1;HPM_P2
2021/07/30 00:00:05;;;;;;;6.00;3.70;;;17.50;99.90;;;;;;5016569;28;20251;-71
2021/07/30 00:02:31;;;;;;;5.30;4.33;;;17.60;99.90;;;;;;5017226;28;20211;-71
2021/07/30 00:04:56;;;;;;;6.83;4.33;;;17.60;99.90;;;;;;5017191;28;20442;-71
2021/07/30 00:07:22;;;;;;;6.90;4.80;;;17.60;99.90;;;;;;5016952;28;20182;-72
2021/07/30 00:09:47;;;;;;;5.77;4.87;;;17.50;99.90;;;;;;5016129;28;20167;-72
2021/07/30 00:12:13;;;;;;;5.73;3.97;;;17.50;99.90;;;;;;4998239;28;20183;-72
2021/07/30 00:14:38;;;;;;;6.60;3.77;;;17.50;99.90;;;;;;5015526;28;20305;-72
2021/07/30 00:17:04;;;;;;;5.40;4.30;;;17.40;99.90;;;;;;4997658;28;20911;-72
2021/07/30 00:19:29;;;;;;;7.23;5.10;;;17.50;99.90;;;;;;5015092;28;20180;-72
2021/07/30 00:21:55;;;;;;;6.80;5.60;;;17.50;99.90;;;;;;5014855;28;20541;-72
2021/07/30 00:24:20;;;;;;;7.37;5.50;;;17.60;99.90;;;;;;5014260;28;20203;-72
2021/07/30 00:26:46;;;;;;;8.43;5.43;;;17.50;99.90;;;;;;5015297;28;20180;-70
2021/07/30 00:29:11;;;;;;;6.87;4.93;;;17.50;99.90;;;;;;5015227;28;20603;-70
2021/07/30 00:31:37;;;;;;;8.13;6.03;;;17.40;99.90;;;;;;5015279;28;20167;-71
2021/07/30 00:34:02;;;;;;;5.73;4.60;;;17.40;99.90;;;;;;5014654;28;20688;-71
2021/07/30 00:36:28;;;;;;;5.47;4.97;;;17.30;99.90;;;;;;5014617;28;20176;-70
2021/07/30 00:38:53;;;;;;;6.00;4.40;;;17.20;99.90;;;;;;5014454;28;20168;-70
2021/07/30 00:41:19;;;;;;;4.97;4.47;;;17.20;99.90;;;;;;5014325;28;20199;-70
2021/07/30 00:43:44;;;;;;;9.43;5.57;;;17.00;99.90;;;;;;5014559;28;20257;-71
2021/07/30 00:46:10;;;;;;;7.10;4.73;;;17.00;99.90;;;;;;5014071;28;20175;-71
2021/07/30 00:48:37;;;;;;;5.57;5.03;;;16.90;99.90;;;;;;5014302;28;20218;-71
2021/07/30 00:51:03;;;;;;;8.20;5.47;;;16.90;99.90;;;;;;4997383;28;20176;-70
2021/07/30 00:53:29;;;;;;;6.00;5.33;;;16.90;99.90;;;;;;5014655;28;20445;-70
2021/07/30 00:55:57;;;;;;;7.90;5.53;;;16.90;99.90;;;;;;5014727;28;20175;-71
2021/07/30 00:58:29;;;;;;;9.50;5.30;;;17.00;99.90;;;;;;5016184;28;20473;-70
2021/07/30 01:00:56;;;;;;;8.57;4.70;;;17.00;99.90;;;;;;5016233;28;20458;-70
2021/07/30 01:03:21;;;;;;;5.20;4.47;;;17.00;99.90;;;;;;5014284;28;20458;-70
2021/07/30 01:05:47;;;;;;;6.00;4.90;;;17.10;99.90;;;;;;5013679;28;20434;-70
2021/07/30 01:08:13;;;;;;;5.63;3.90;;;17.10;99.90;;;;;;5014336;28;20172;-70
2021/07/30 01:10:39;;;;;;;8.63;4.82;;;17.10;99.90;;;;;;5014189;28;20442;-70
2021/07/30 01:13:05;;;;;;;8.23;5.00;;;17.20;99.90;;;;;;5014626;28;20262;-71
2021/07/30 01:15:30;;;;;;;6.00;4.97;;;17.10;99.90;;;;;;5013894;28;20629;-70
2021/07/30 01:17:56;;;;;;;6.17;4.63;;;17.20;99.90;;;;;;5013653;28;20226;-71
2021/07/30 01:20:26;;;;;;;6.47;5.17;;;17.20;99.90;;;;;;5014343;28;20171;-70
2021/07/30 01:22:54;;;;;;;5.50;4.80;;;17.20;99.90;;;;;;5014007;28;20198;-71
2021/07/30 01:25:20;;;;;;;7.63;4.77;;;17.20;99.90;;;;;;5013833;28;20422;-70
2021/07/30 01:27:47;;;;;;;5.10;4.37;;;17.20;99.90;;;;;;5014245;28;20756;-71
2021/07/30 01:30:17;;;;;;;4.63;4.23;;;17.20;99.90;;;;;;5013814;28;20446;-70
2021/07/30 01:32:43;;;;;;;6.70;4.80;;;17.20;99.90;;;;;;5013835;28;20457;-71
2021/07/30 01:35:09;;;;;;;6.40;4.57;;;17.20;99.90;;;;;;5017753;28;20932;-72
2021/07/30 01:37:35;;;;;;;4.10;3.80;;;17.30;99.90;;;;;;5023522;28;20490;-71
2021/07/30 01:40:01;;;;;;;9.80;5.40;;;17.40;99.90;;;;;;5039337;28;20445;-71
2021/07/30 01:42:27;;;;;;;5.03;4.53;;;17.50;99.90;;;;;;5039123;28;20234;-71
2021/07/30 01:44:53;;;;;;;7.80;4.70;;;17.50;99.90;;;;;;5018011;28;20417;-71
2021/07/30 01:47:21;;;;;;;6.83;5.30;;;17.50;99.90;;;;;;5017737;28;20865;-71
2021/07/30 01:49:50;;;;;;;7.90;4.90;;;17.50;99.90;;;;;;5018484;28;20629;-71
2021/07/30 01:52:17;;;;;;;5.10;4.63;;;17.50;99.90;;;;;;5018250;28;20764;-71
2021/07/30 01:54:44;;;;;;;8.00;5.20;;;17.50;99.90;;;;;;5017780;28;20419;-71
2021/07/30 01:57:10;;;;;;;6.57;4.43;;;17.50;99.90;;;;;;5017608;28;20425;-71
2021/07/30 01:59:36;;;;;;;4.23;3.93;;;17.40;99.90;;;;;;5017618;28;20418;-71
2021/07/30 02:02:02;;;;;;;5.00;4.40;;;17.40;99.90;;;;;;5017832;28;20940;-71
2021/07/30 02:04:27;;;;;;;5.17;4.60;;;17.50;99.90;;;;;;5017115;28;20213;-72
2021/07/30 02:06:53;;;;;;;6.60;4.07;;;17.50;99.90;;;;;;5017751;28;20490;-71
2021/07/30 02:09:18;;;;;;;6.70;4.27;;;17.50;99.90;;;;;;5016909;28;20406;-71
2021/07/30 02:11:50;;;;;;;6.57;5.00;;;17.50;99.90;;;;;;5018020;28;20270;-71
2021/07/30 02:14:16;;;;;;;7.90;4.50;;;17.50;99.90;;;;;;5017333;28;20191;-72
2021/07/30 02:16:45;;;;;;;8.07;4.63;;;17.50;99.90;;;;;;5017441;28;20832;-71
2021/07/30 02:19:12;;;;;;;7.80;4.53;;;17.60;99.90;;;;;;5017095;28;20498;-71
2021/07/30 02:21:37;;;;;;;4.77;4.27;;;17.60;99.90;;;;;;5017698;28;20454;-71
2021/07/30 02:24:04;;;;;;;8.00;4.30;;;17.60;99.90;;;;;;5016995;28;20429;-71
2021/07/30 02:26:29;;;;;;;5.87;4.80;;;17.70;99.90;;;;;;5016936;28;20518;-71
2021/07/30 02:28:55;;;;;;;5.93;4.47;;;17.70;99.90;;;;;;5016889;28;20421;-71
2021/07/30 02:31:21;;;;;;;5.30;4.80;;;17.80;99.90;;;;;;5016926;28;20175;-71
2021/07/30 02:33:47;;;;;;;5.10;4.07;;;17.80;99.90;;;;;;5017025;28;20537;-71
2021/07/30 02:36:12;;;;;;;7.17;4.43;;;17.80;99.90;;;;;;5016812;28;20498;-70
2021/07/30 02:38:38;;;;;;;7.00;4.30;;;17.80;99.90;;;;;;5016672;28;20182;-71
2021/07/30 02:41:04;;;;;;;6.13;4.40;;;17.70;99.90;;;;;;5016456;28;20270;-70
2021/07/30 02:43:29;;;;;;;5.90;4.90;;;17.80;99.90;;;;;;5017370;28;20653;-70
2021/07/30 02:45:55;;;;;;;4.93;4.10;;;17.80;99.90;;;;;;5016577;28;20251;-70
2021/07/30 02:48:20;;;;;;;5.83;4.10;;;17.70;99.90;;;;;;5016730;28;20175;-71
2021/07/30 02:50:48;;;;;;;8.83;5.00;;;17.60;99.90;;;;;;5016522;28;20664;-71
2021/07/30 02:53:14;;;;;;;6.87;4.63;;;17.50;99.90;;;;;;5016768;28;20188;-71
2021/07/30 02:55:39;;;;;;;5.13;4.13;;;17.50;99.90;;;;;;5016610;28;20927;-71
2021/07/30 02:58:05;;;;;;;7.67;4.80;;;17.30;99.90;;;;;;5016781;28;20226;-71
2021/07/30 03:00:30;;;;;;;5.72;4.60;;;17.30;99.90;;;;;;5016558;28;20434;-71
2021/07/30 03:02:56;;;;;;;4.87;3.90;;;17.30;99.90;;;;;;5017222;28;20278;-71
2021/07/30 03:05:21;;;;;;;5.75;4.75;;;17.20;99.90;;;;;;5016178;28;20431;-71
2021/07/30 03:07:47;;;;;;;6.50;4.40;;;17.10;99.90;;;;;;5017510;28;20179;-71
2021/07/30 03:10:12;;;;;;;5.70;4.57;;;17.00;99.90;;;;;;5017049;28;20198;-71
2021/07/30 03:12:38;;;;;;;8.73;4.50;;;16.90;99.90;;;;;;5017330;28;20545;-70
2021/07/30 03:15:04;;;;;;;5.33;4.20;;;16.80;99.90;;;;;;5016471;28;20629;-71
2021/07/30 03:17:29;;;;;;;6.30;4.63;;;16.80;99.90;;;;;;5016176;28;20215;-71
2021/07/30 03:19:55;;;;;;;5.67;4.30;;;16.80;99.90;;;;;;5016063;28;20912;-71
2021/07/30 03:22:20;;;;;;;5.60;4.17;;;16.60;99.90;;;;;;5016016;28;20294;-71
2021/07/30 03:24:46;;;;;;;5.67;4.47;;;16.60;99.90;;;;;;5015850;28;20171;-72
2021/07/30 03:27:11;;;;;;;4.73;4.10;;;16.50;99.90;;;;;;5015945;28;20664;-72
2021/07/30 03:29:37;;;;;;;5.73;3.60;;;16.50;99.90;;;;;;5015788;28;20637;-72
2021/07/30 03:32:03;;;;;;;11.27;4.37;;;16.50;99.90;;;;;;5015869;28;20633;-72
2021/07/30 03:34:32;;;;;;;4.90;3.90;;;16.60;99.90;;;;;;5015837;28;20163;-71
2021/07/30 03:36:58;;;;;;;6.47;4.40;;;16.70;99.90;;;;;;5015446;28;20403;-70
2021/07/30 03:39:23;;;;;;;4.87;3.87;;;16.80;99.90;;;;;;5016347;28;20195;-70
2021/07/30 03:41:49;;;;;;;4.53;4.17;;;16.90;99.90;;;;;;5016672;28;20234;-70
2021/07/30 03:44:15;;;;;;;8.00;4.87;;;16.90;99.90;;;;;;5016233;28;20263;-71
2021/07/30 03:46:40;;;;;;;5.10;4.60;;;16.90;99.90;;;;;;5016513;28;20175;-70
2021/07/30 03:49:06;;;;;;;8.80;4.20;;;16.80;99.90;;;;;;5016821;28;20186;-70
2021/07/30 03:51:31;;;;;;;5.43;4.50;;;16.70;99.90;;;;;;5015803;28;20171;-70
2021/07/30 03:53:57;;;;;;;5.67;4.00;;;16.60;99.90;;;;;;5015679;28;20211;-71
2021/07/30 03:56:23;;;;;;;7.13;4.50;;;16.60;99.90;;;;;;5015169;28;20167;-70
2021/07/30 03:58:49;;;;;;;5.57;4.63;;;16.60;99.90;;;;;;4998002;28;20181;-70
2021/07/30 04:01:14;;;;;;;6.07;4.70;;;16.50;99.90;;;;;;5015254;28;20206;-71
2021/07/30 04:03:42;;;;;;;4.27;3.87;;;16.40;99.90;;;;;;5015220;28;20426;-71
2021/07/30 04:06:08;;;;;;;6.60;4.35;;;16.40;99.90;;;;;;5014889;28;20439;-70
2021/07/30 04:08:34;;;;;;;6.87;4.50;;;16.40;99.90;;;;;;5015914;28;20636;-70
2021/07/30 04:11:00;;;;;;;9.30;4.47;;;16.30;99.90;;;;;;5015978;28;20172;-70
2021/07/30 04:13:26;;;;;;;6.90;4.67;;;16.30;99.90;;;;;;5016466;28;20430;-70
2021/07/30 04:15:51;;;;;;;9.47;4.27;;;16.20;99.90;;;;;;5015562;28;20488;-70
2021/07/30 04:18:17;;;;;;;7.40;4.53;;;16.20;99.90;;;;;;5016064;28;20234;-70
2021/07/30 04:20:42;;;;;;;6.80;4.13;;;16.30;99.90;;;;;;5016543;28;20207;-71
2021/07/30 04:23:08;;;;;;;5.07;4.53;;;16.30;99.90;;;;;;5016014;28;20190;-71
2021/07/30 04:25:39;;;;;;;4.80;4.30;;;16.20;99.90;;;;;;5015121;28;20164;-71
2021/07/30 04:28:05;;;;;;;7.77;4.57;;;16.30;99.90;;;;;;5014904;28;20168;-72
2021/07/30 04:30:30;;;;;;;4.77;4.37;;;16.30;99.90;;;;;;5015193;28;20418;-71
2021/07/30 04:32:56;;;;;;;5.30;4.40;;;16.40;99.90;;;;;;5015898;28;20192;-71
2021/07/30 04:35:21;;;;;;;4.80;4.40;;;16.40;99.90;;;;;;5015345;28;20163;-71
2021/07/30 04:37:47;;;;;;;6.03;4.70;;;16.50;99.90;;;;;;5014448;28;20411;-71
2021/07/30 04:40:12;;;;;;;7.63;4.60;;;16.60;99.90;;;;;;5015998;28;20399;-71
2021/07/30 04:42:38;;;;;;;5.57;4.90;;;16.50;99.90;;;;;;5015159;28;20207;-71
2021/07/30 04:45:04;;;;;;;10.67;5.20;;;16.50;99.90;;;;;;5015321;28;20718;-71
2021/07/30 04:47:29;;;;;;;9.30;5.73;;;16.50;99.90;;;;;;5014872;28;20167;-72
2021/07/30 04:49:55;;;;;;;7.00;4.43;;;16.50;99.90;;;;;;5014668;28;20478;-71
2021/07/30 04:52:20;;;;;;;4.27;3.53;;;16.40;99.90;;;;;;5014930;28;20260;-71
2021/07/30 04:54:46;;;;;;;6.40;4.50;;;16.40;99.90;;;;;;4997079;28;20266;-71
2021/07/30 04:57:11;;;;;;;7.73;4.50;;;16.40;99.90;;;;;;5011926;28;20176;-72
2021/07/30 04:59:37;;;;;;;5.90;4.73;;;16.30;99.90;;;;;;5017132;28;20295;-71
2021/07/30 05:02:03;;;;;;;5.97;4.50;;;16.30;99.90;;;;;;5017358;28;20271;-71
2021/07/30 05:04:28;;;;;;;5.90;4.20;;;16.30;99.90;;;;;;4998560;28;20342;-71
2021/07/30 05:06:56;;;;;;;4.67;4.17;;;16.30;99.90;;;;;;4975139;28;20185;-71
2021/07/30 05:09:22;;;;;;;6.57;4.60;;;16.30;99.90;;;;;;4975002;28;20686;-71
2021/07/30 05:11:47;;;;;;;5.93;4.13;;;16.20;99.90;;;;;;4975631;28;20451;-71
2021/07/30 05:14:13;;;;;;;5.87;3.90;;;16.20;99.90;;;;;;4975974;28;20243;-71
2021/07/30 05:16:38;;;;;;;4.83;4.33;;;16.30;99.90;;;;;;4975534;28;20208;-70
2021/07/30 05:19:04;;;;;;;4.83;4.40;;;16.30;99.90;;;;;;4975436;28;20224;-70
2021/07/30 05:21:30;;;;;;;4.90;4.40;;;16.30;99.90;;;;;;4969818;28;20327;-71
2021/07/30 05:23:57;;;;;;;7.33;5.40;;;16.30;99.90;;;;;;4971345;28;20745;-71
2021/07/30 05:26:22;;;;;;;7.50;4.40;;;16.30;99.90;;;;;;4972352;28;20189;-71
2021/07/30 05:28:48;;;;;;;5.10;4.60;;;16.30;99.90;;;;;;4972531;28;20427;-71
2021/07/30 05:31:18;;;;;;;4.80;3.93;;;16.30;99.90;;;;;;4973436;28;20588;-71
2021/07/30 05:33:44;;;;;;;4.33;3.90;;;16.30;99.90;;;;;;4973123;28;20216;-71
2021/07/30 05:36:15;;;;;;;5.90;5.30;;;16.40;99.90;;;;;;4980814;28;20434;-70
2021/07/30 05:38:41;;;;;;;4.07;3.67;;;16.50;99.90;;;;;;4972274;28;20443;-72
2021/07/30 05:41:11;;;;;;;4.17;3.87;;;16.50;99.90;;;;;;4971657;28;20467;-70
2021/07/30 05:43:42;;;;;;;6.63;4.10;;;16.60;99.90;;;;;;4970942;28;20240;-71
2021/07/30 05:46:08;;;;;;;6.60;4.60;;;16.70;99.90;;;;;;4961281;28;20893;-71
2021/07/30 05:48:34;;;;;;;4.20;3.80;;;16.80;99.90;;;;;;4972020;28;20416;-71
2021/07/30 05:51:00;;;;;;;4.23;3.83;;;16.90;99.90;;;;;;4970642;28;21019;-72
2021/07/30 05:53:26;;;;;;;7.03;3.67;;;17.00;99.90;;;;;;4971363;28;20440;-71
2021/07/30 05:55:51;;;;;;;4.47;4.07;;;17.10;99.90;;;;;;4971848;28;20184;-71
2021/07/30 05:58:17;;;;;;;4.40;3.67;;;17.10;99.90;;;;;;4966623;28;20453;-71
2021/07/30 06:00:43;;;;;;;7.13;4.77;;;17.10;99.90;;;;;;4978405;28;20193;-71
2021/07/30 06:03:08;;;;;;;3.97;3.67;;;17.20;99.90;;;;;;4971999;28;20251;-71
2021/07/30 06:05:34;;;;;;;3.57;3.27;;;17.20;99.90;;;;;;4970710;28;20666;-72
2021/07/30 06:08:04;;;;;;;4.50;3.93;;;17.20;99.90;;;;;;4970990;28;20209;-71
2021/07/30 06:10:29;;;;;;;7.63;4.03;;;17.30;99.90;;;;;;4969518;28;20187;-71
2021/07/30 06:12:55;;;;;;;3.60;3.30;;;17.40;99.90;;;;;;4966600;28;20531;-71
2021/07/30 06:15:23;;;;;;;5.57;3.50;;;17.50;99.90;;;;;;4969713;28;20235;-71
2021/07/30 06:17:50;;;;;;;4.10;3.70;;;17.50;99.90;;;;;;4970743;28;20180;-72
2021/07/30 06:20:15;;;;;;;4.13;3.57;;;17.50;99.90;;;;;;4974095;28;20424;-71
2021/07/30 06:22:41;;;;;;;3.77;3.47;;;17.60;99.90;;;;;;4975289;28;20519;-71
2021/07/30 06:25:07;;;;;;;4.00;3.30;;;17.70;99.90;;;;;;4956003;28;20203;-71
2021/07/30 06:27:36;;;;;;;3.73;3.43;;;17.80;99.90;;;;;;4974569;28;20642;-71
2021/07/30 06:30:04;;;;;;;6.13;3.83;;;17.90;99.90;;;;;;4975586;28;20436;-70
2021/07/30 06:32:29;;;;;;;5.30;3.63;;;18.00;99.90;;;;;;4976140;28;20440;-72
2021/07/30 06:34:55;;;;;;;4.90;3.87;;;18.00;99.90;;;;;;4974140;28;20475;-70
2021/07/30 06:37:21;;;;;;;4.73;3.27;;;18.20;99.90;;;;;;4974964;28;20650;-70
2021/07/30 06:39:47;;;;;;;6.87;3.43;;;18.30;99.90;;;;;;4974728;28;20181;-70
2021/07/30 06:42:12;;;;;;;6.40;4.07;;;18.40;99.90;;;;;;4974080;28;20204;-72
2021/07/30 06:44:38;;;;;;;4.00;3.47;;;18.50;99.90;;;;;;4973029;28;20764;-70
2021/07/30 06:47:04;;;;;;;6.27;4.13;;;18.60;99.90;;;;;;4973908;28;20774;-71
2021/07/30 06:49:29;;;;;;;5.73;3.30;;;18.70;99.90;;;;;;4973026;28;20185;-70
2021/07/30 06:51:55;;;;;;;7.30;3.20;;;18.80;99.90;;;;;;4973865;28;20424;-71
2021/07/30 06:54:21;;;;;;;3.60;3.30;;;18.90;99.90;;;;;;4973208;28;20217;-69
2021/07/30 06:56:46;;;;;;;4.87;3.60;;;18.90;99.90;;;;;;4974157;28;20184;-69
2021/07/30 06:59:12;;;;;;;4.10;3.30;;;19.10;99.90;;;;;;4974445;28;20199;-69
2021/07/30 07:01:38;;;;;;;4.20;2.97;;;19.20;99.90;;;;;;4974186;28;20200;-70
2021/07/30 07:04:04;;;;;;;3.43;3.13;;;19.40;99.90;;;;;;4976952;28;20443;-69
2021/07/30 07:06:30;;;;;;;6.60;3.30;;;19.50;99.90;;;;;;4993862;28;20204;-69
2021/07/30 07:08:56;;;;;;;4.10;3.30;;;19.60;99.90;;;;;;4992828;28;20196;-69
2021/07/30 07:11:22;;;;;;;3.70;2.80;;;19.80;99.90;;;;;;5007806;28;20711;-69
2021/07/30 07:13:47;;;;;;;6.77;3.37;;;19.90;99.90;;;;;;5012918;28;20470;-69
2021/07/30 07:16:18;;;;;;;3.60;2.92;;;19.90;99.90;;;;;;5005990;28;20762;-68
2021/07/30 07:18:44;;;;;;;3.50;2.63;;;19.90;99.80;;;;;;5013190;28;20179;-68
2021/07/30 07:21:13;;;;;;;3.63;2.77;;;20.00;99.70;;;;;;5012847;28;20489;-69
2021/07/30 07:23:38;;;;;;;6.93;2.50;;;20.20;99.10;;;;;;5012699;28;20642;-69
2021/07/30 07:26:04;;;;;;;4.13;2.90;;;20.20;99.20;;;;;;5012407;28;20457;-69
2021/07/30 07:28:29;;;;;;;3.57;2.97;;;20.30;99.20;;;;;;5012595;28;20184;-70
2021/07/30 07:30:55;;;;;;;3.30;3.00;;;20.20;98.50;;;;;;5004436;28;20176;-70
2021/07/30 07:33:21;;;;;;;3.10;2.80;;;20.20;99.00;;;;;;4996328;28;20200;-70
2021/07/30 07:35:46;;;;;;;3.70;3.13;;;20.30;99.50;;;;;;4996278;28;20195;-70
2021/07/30 07:38:12;;;;;;;3.40;3.10;;;20.40;99.00;;;;;;4996498;28;20184;-71
2021/07/30 07:40:37;;;;;;;4.33;3.30;;;20.50;98.80;;;;;;4996358;28;20196;-69
2021/07/30 07:43:03;;;;;;;4.88;3.10;;;20.70;98.60;;;;;;4996017;28;20774;-70
2021/07/30 07:45:28;;;;;;;3.40;3.10;;;20.80;98.20;;;;;;4996158;28;20168;-70
2021/07/30 07:47:57;;;;;;;4.30;3.20;;;20.90;98.00;;;;;;4996443;28;20479;-70
2021/07/30 07:50:23;;;;;;;5.50;3.30;;;20.90;97.70;;;;;;4996065;28;20195;-69
2021/07/30 07:52:48;;;;;;;6.87;3.20;;;21.00;97.80;;;;;;4996550;28;20474;-69
2021/07/30 07:55:14;;;;;;;3.70;3.37;;;21.00;97.90;;;;;;4995944;28;20179;-70
2021/07/30 07:57:43;;;;;;;2.97;2.67;;;21.00;97.60;;;;;;4996617;28;20653;-70
2021/07/30 08:00:10;;;;;;;3.73;2.90;;;21.00;97.40;;;;;;4996100;28;20168;-70
2021/07/30 08:02:35;;;;;;;3.23;2.97;;;21.20;97.50;;;;;;4994268;28;20993;-71
2021/07/30 08:05:01;;;;;;;4.80;3.20;;;21.10;96.80;;;;;;4985401;28;20448;-71
2021/07/30 08:07:26;;;;;;;3.63;3.33;;;21.20;97.10;;;;;;4976094;28;20183;-73
2021/07/30 08:09:52;;;;;;;4.13;3.00;;;21.20;97.00;;;;;;4976125;28;20181;-72
2021/07/30 08:12:18;;;;;;;4.80;3.37;;;21.20;96.60;;;;;;4976221;28;20208;-69
2021/07/30 08:14:44;;;;;;;3.50;3.20;;;21.30;96.80;;;;;;4975971;28;20212;-70
2021/07/30 08:17:10;;;;;;;4.07;3.43;;;21.20;96.70;;;;;;4975786;28;20890;-70
2021/07/30 08:19:36;;;;;;;3.90;2.87;;;21.10;96.70;;;;;;4976335;28;20634;-69
2021/07/30 08:22:02;;;;;;;4.27;3.47;;;21.10;97.00;;;;;;4975978;28;20215;-69
2021/07/30 08:24:28;;;;;;;5.67;3.00;;;21.10;96.80;;;;;;4978478;28;20432;-70
2021/07/30 08:26:54;;;;;;;3.43;2.67;;;21.20;96.60;;;;;;4980102;28;20419;-70
2021/07/30 08:29:19;;;;;;;2.90;2.60;;;21.30;96.60;;;;;;4976002;28;20185;-69
2021/07/30 08:31:45;;;;;;;3.37;2.90;;;21.40;96.40;;;;;;4976769;28;20196;-70
2021/07/30 08:34:14;;;;;;;4.87;3.47;;;21.40;96.50;;;;;;4975370;28;20196;-70
2021/07/30 08:36:40;;;;;;;4.90;3.27;;;21.50;96.50;;;;;;4975363;28;20176;-69
2021/07/30 08:39:06;;;;;;;3.57;3.27;;;21.60;96.30;;;;;;4976220;28;20886;-71
2021/07/30 08:41:32;;;;;;;3.20;3.00;;;21.60;96.30;;;;;;4975734;28;20217;-69
2021/07/30 08:43:58;;;;;;;4.73;3.40;;;21.70;96.20;;;;;;4976046;28;20192;-69
2021/07/30 08:46:29;;;;;;;3.30;3.00;;;21.70;95.90;;;;;;4975503;28;20412;-70
2021/07/30 08:48:55;;;;;;;3.87;2.90;;;21.80;96.10;;;;;;4974981;28;20169;-69
2021/07/30 08:51:22;;;;;;;4.00;3.40;;;21.90;95.90;;;;;;4975286;28;20414;-71
2021/07/30 08:53:49;;;;;;;7.27;3.60;;;22.00;95.80;;;;;;4975469;28;20280;-69
2021/07/30 08:56:16;;;;;;;4.07;3.00;;;21.90;95.90;;;;;;4979560;28;20408;-71
2021/07/30 08:58:45;;;;;;;4.77;3.60;;;21.90;96.00;;;;;;4975224;28;20412;-70
2021/07/30 09:01:12;;;;;;;5.40;3.27;;;21.90;96.20;;;;;;4975502;28;20460;-70
2021/07/30 09:03:42;;;;;;;7.43;3.10;;;21.90;96.20;;;;;;4975242;28;20949;-70
2021/07/30 09:06:22;;;;;;;5.97;3.00;;;22.00;96.20;;;;;;4975267;28;20543;-70
2021/07/30 09:09:02;;;;;;;6.00;3.40;;;22.30;96.20;;;;;;4976347;28;20916;-70
2021/07/30 09:11:40;;;;;;;4.70;3.03;;;22.40;95.90;;;;;;4975960;28;20443;-70
2021/07/30 09:14:10;;;;;;;8.40;2.97;;;22.50;95.60;;;;;;4976492;28;20439;-71
2021/07/30 09:16:50;;;;;;;3.40;3.10;;;22.40;95.60;;;;;;4976182;28;20467;-70
2021/07/30 09:19:16;;;;;;;4.23;3.07;;;22.50;95.40;;;;;;4983432;28;20492;-70
2021/07/30 09:21:42;;;;;;;4.00;3.20;;;22.50;95.40;;;;;;4988559;28;20460;-70
2021/07/30 09:24:08;;;;;;;4.03;3.10;;;22.50;95.60;;;;;;4976608;28;20424;-70
2021/07/30 09:26:38;;;;;;;7.80;3.60;;;22.70;95.60;;;;;;4975622;28;20502;-70
2021/07/30 09:29:13;;;;;;;3.60;3.40;;;22.70;95.60;;;;;;4975544;28;20227;-70
2021/07/30 09:31:38;;;;;;;4.23;3.23;;;22.70;95.70;;;;;;4974858;28;20414;-70
2021/07/30 09:34:26;;;;;;;4.50;3.27;;;22.80;95.70;;;;;;4974581;28;20436;-70
2021/07/30 09:36:54;;;;;;;4.47;3.27;;;23.00;95.70;;;;;;4975615;28;20192;-70
2021/07/30 09:39:38;;;;;;;3.50;3.20;;;23.20;95.20;;;;;;4975185;28;20409;-70
2021/07/30 09:42:31;;;;;;;4.57;2.87;;;23.20;94.60;;;;;;4975040;28;20444;-70
2021/07/30 09:45:02;;;;;;;5.03;3.60;;;23.10;94.70;;;;;;4973200;28;20763;-70
2021/07/30 09:47:34;;;;;;;3.60;3.30;;;23.20;94.90;;;;;;4975363;28;20854;-70
2021/07/30 09:50:03;;;;;;;3.80;3.23;;;23.20;94.90;;;;;;4974844;28;20415;-70
2021/07/30 09:52:33;;;;;;;5.43;3.80;;;23.20;95.00;;;;;;4974950;28;20770;-69
2021/07/30 09:55:01;;;;;;;4.78;3.83;;;23.10;95.20;;;;;;4976623;28;20484;-71
2021/07/30 09:57:31;;;;;;;4.40;3.67;;;23.20;95.10;;;;;;4978017;28;20531;-71
2021/07/30 10:00:06;;;;;;;3.63;3.33;;;23.10;95.20;;;;;;4978416;28;20416;-71
2021/07/30 10:02:33;;;;;;;4.20;3.33;;;23.10;95.40;;;;;;4977877;28;20820;-71
2021/07/30 10:05:00;;;;;;;3.83;3.50;;;23.20;95.50;;;;;;4975434;28;20428;-71
2021/07/30 10:07:28;;;;;;;6.27;3.80;;;23.40;95.40;;;;;;4977550;28;20424;-70
2021/07/30 10:10:19;;;;;;;5.80;3.83;;;23.40;95.40;;;;;;4978340;28;20417;-71
2021/07/30 10:12:49;;;;;;;4.03;3.10;;;23.50;95.10;;;;;;4976897;28;20495;-70
2021/07/30 10:15:14;;;;;;;4.00;3.67;;;23.50;94.30;;;;;;4979505;28;20395;-70
2021/07/30 10:17:45;;;;;;;4.20;3.63;;;23.50;94.10;;;;;;4979059;28;20424;-71
2021/07/30 10:20:12;;;;;;;8.33;3.43;;;23.60;93.70;;;;;;4978704;28;20215;-71
2021/07/30 10:23:06;;;;;;;4.73;3.47;;;23.70;93.20;;;;;;4978490;28;20468;-71
2021/07/30 10:25:41;;;;;;;4.73;3.90;;;23.80;93.10;;;;;;4977937;28;20427;-69
2021/07/30 10:28:28;;;;;;;4.23;3.20;;;23.80;93.10;;;;;;4978372;28;20506;-70
2021/07/30 10:30:55;;;;;;;3.53;3.33;;;23.70;93.30;;;;;;4980355;28;20495;-71
2021/07/30 10:33:40;;;;;;;5.00;3.57;;;23.70;93.30;;;;;;4962926;28;20527;-71
2021/07/30 10:36:31;;;;;;;9.10;4.13;;;23.70;93.20;;;;;;4980262;28;20447;-70
2021/07/30 10:39:15;;;;;;;3.73;3.40;;;23.70;93.20;;;;;;4978423;28;20424;-70
2021/07/30 10:41:41;;;;;;;4.47;3.80;;;23.80;92.90;;;;;;4975885;28;20550;-71
2021/07/30 10:44:08;;;;;;;9.93;4.50;;;23.90;92.90;;;;;;4977363;28;20193;-70
2021/07/30 10:46:34;;;;;;;5.15;3.80;;;24.10;92.90;;;;;;4976058;28;20476;-70
2021/07/30 10:48:59;;;;;;;4.13;3.83;;;24.20;92.50;;;;;;4977354;28;20413;-70
2021/07/30 10:51:27;;;;;;;4.20;3.83;;;24.30;92.40;;;;;;4977357;28;20432;-70
2021/07/30 10:54:00;;;;;;;5.93;3.90;;;24.30;91.80;;;;;;4977525;28;20612;-69
2021/07/30 10:56:31;;;;;;;5.00;3.80;;;24.30;91.30;;;;;;4977054;28;20761;-70
2021/07/30 10:59:00;;;;;;;5.10;3.90;;;24.30;91.30;;;;;;4977323;28;20514;-70
2021/07/30 11:01:29;;;;;;;8.90;3.87;;;24.50;91.60;;;;;;4975503;28;20518;-69
2021/07/30 11:03:56;;;;;;;6.23;3.80;;;24.60;91.40;;;;;;4977206;28;20440;-71
2021/07/30 11:06:26;;;;;;;6.70;4.20;;;24.40;91.60;;;;;;4975644;28;20420;-70
2021/07/30 11:09:01;;;;;;;4.57;4.10;;;24.60;91.70;;;;;;4977091;28;20412;-71
2021/07/30 11:11:41;;;;;;;3.93;3.60;;;24.60;91.10;;;;;;4977557;28;20418;-71
2021/07/30 11:14:13;;;;;;;6.00;3.77;;;24.60;91.10;;;;;;4976886;28;20889;-71
2021/07/30 11:16:44;;;;;;;4.43;3.80;;;24.30;91.00;;;;;;4976558;28;20818;-71
2021/07/30 11:19:11;;;;;;;7.03;3.97;;;24.30;91.20;;;;;;4977096;28;20416;-71
2021/07/30 11:21:36;;;;;;;17.03;5.90;;;24.40;91.50;;;;;;4977120;28;20547;-71
2021/07/30 11:24:03;;;;;;;5.00;3.80;;;24.40;91.30;;;;;;4977624;28;20587;-71
2021/07/30 11:26:30;;;;;;;4.53;3.50;;;24.50;91.60;;;;;;4977716;28;20169;-70
2021/07/30 11:29:01;;;;;;;10.53;5.10;;;24.70;91.20;;;;;;4977769;28;20412;-71
2021/07/30 11:31:26;;;;;;;6.60;4.07;;;24.60;91.00;;;;;;4978455;28;20397;-70
2021/07/30 11:33:53;;;;;;;8.90;4.50;;;24.60;90.90;;;;;;4965332;28;20429;-70
2021/07/30 11:36:19;;;;;;;5.83;4.17;;;24.60;91.30;;;;;;4985423;28;20423;-69
2021/07/30 11:38:48;;;;;;;11.27;3.90;;;24.50;90.60;;;;;;4982702;28;20938;-69
2021/07/30 11:41:17;;;;;;;13.13;5.53;;;24.50;90.90;;;;;;4977770;28;20491;-69
2021/07/30 11:44:01;;;;;;;5.70;4.70;;;24.50;91.30;;;;;;4976954;28;20918;-69
2021/07/30 11:46:31;;;;;;;27.60;9.23;;;24.30;91.20;;;;;;4976874;28;20491;-71
2021/07/30 11:48:58;;;;;;;9.83;5.00;;;24.30;91.50;;;;;;4976818;28;20406;-70
2021/07/30 11:51:24;;;;;;;4.73;4.10;;;24.40;91.50;;;;;;4976357;28;20937;-70
2021/07/30 11:53:52;;;;;;;4.70;4.10;;;24.50;91.40;;;;;;4974810;28;20433;-70
2021/07/30 11:56:22;;;;;;;4.23;3.60;;;24.80;91.20;;;;;;4972434;28;20458;-71
2021/07/30 11:59:01;;;;;;;4.67;3.83;;;24.90;91.00;;;;;;4973366;28;20552;-70
2021/07/30 12:01:30;;;;;;;6.43;4.20;;;25.00;91.00;;;;;;4975166;28;20441;-70
2021/07/30 12:04:15;;;;;;;4.03;3.70;;;25.00;90.90;;;;;;4976083;28;20185;-71
2021/07/30 12:06:49;;;;;;;5.53;4.43;;;24.80;90.90;;;;;;4975899;28;20447;-69
2021/07/30 12:09:16;;;;;;;4.27;3.90;;;24.80;91.00;;;;;;4976391;28;20754;-69
2021/07/30 12:11:57;;;;;;;4.00;3.70;;;24.90;91.10;;;;;;4975798;28;20427;-70
2021/07/30 12:14:26;;;;;;;3.70;3.40;;;25.00;91.00;;;;;;4976037;28;20416;-71
2021/07/30 12:16:53;;;;;;;4.70;3.63;;;25.10;91.00;;;;;;4983808;28;20472;-70
2021/07/30 12:19:32;;;;;;;3.60;3.20;;;25.00;90.90;;;;;;4976356;28;20503;-70
2021/07/30 12:22:00;;;;;;;4.20;3.80;;;25.10;90.90;;;;;;4976014;28;20526;-70
2021/07/30 12:24:26;;;;;;;3.77;3.47;;;25.10;90.70;;;;;;4975606;28;20457;-71
2021/07/30 12:26:52;;;;;;;4.00;3.67;;;25.20;90.30;;;;;;4976191;28;20925;-71
2021/07/30 12:29:41;;;;;;;5.50;3.50;;;25.10;90.00;;;;;;4975998;28;20420;-70
2021/07/30 12:32:13;;;;;;;4.50;4.10;;;25.20;90.20;;;;;;4976005;28;20173;-69
2021/07/30 12:34:39;;;;;;;4.00;3.60;;;25.00;90.10;;;;;;4977039;28;20768;-69
2021/07/30 12:37:09;;;;;;;13.00;4.13;;;24.90;90.40;;;;;;4977708;28;20415;-69
2021/07/30 12:39:46;;;;;;;5.17;3.70;;;24.90;90.20;;;;;;4978884;28;20179;-70
2021/07/30 12:42:18;;;;;;;4.20;3.80;;;24.90;90.30;;;;;;4987878;28;20813;-70
2021/07/30 12:45:08;;;;;;;12.83;4.50;;;24.80;90.30;;;;;;4979866;28;20424;-70
2021/07/30 12:47:37;;;;;;;8.33;4.17;;;24.80;90.40;;;;;;4976946;28;20404;-70